KPOE/POE METAR and TAF weather

Enter ICAO airport designator
Station Type Date Time Source
KPOE METAR 2022/06/30 13:58 UTC NOAA

KPOE 301358Z AUTO 00000KT 10SM OVC120 26/23 A3009 RMK AO2 SLP189 T02620227


Station Type Date Time Source
KPOE Decoded METAR 2022/06/30 13:58 UTC NOAA

Fort Polk, Polk AAF Ft Polk, LA, United States (KPOE) 31-03N 093-11-38W
Jun 30, 2022 - 09:58 AM EDT / 2022.06.30 1358 UTC
Wind: Calm:0
Visibility: 10 mile(s):0
Sky conditions: overcast
Temperature: 79.2 F (26.2 C)
Dew Point: 72.9 F (22.7 C)
Relative Humidity: 81%
Pressure (altimeter): 30.09 in. Hg (1018 hPa)
ob: KPOE 301358Z AUTO 00000KT 10SM OVC120 26/23 A3009 RMK AO2 SLP189 T02620227
cycle: 14

Station Type Date Time Source
KPOE TAF 2022/06/30 05:57 UTC NOAA

TAF
AMD KPOE 300520Z 3005/0108 VRB06KT 9000 BR BKN025 QNH3008INS
BECMG 3016/3017 VRB06KT 8000 -SHRA FEW030 BKN060 QNH2999INS
TEMPO 3017/3023 VRB30G35KT 9000 -TSRA FEW030CB BKN045
BECMG 0101/0102 VRB06KT 8000 BR SCT015 QNH2999INS TX29/3019Z TN23/3011Z LAST NO
AMDS AFT 3005 NEXT 3010

Example: see airport list